Time;durP1;ratioP1;P1;durP2;ratioP2;P2;SDS_P1;SDS_P2;PMS_P1;PMS_P2;Temp;Humidity;BMP_temperature;BMP_pressure;BME280_temperature;BME280_humidity;BME280_pressure;Samples;Min_cycle;Max_cycle;Signal;HPM_P1;HPM_P2
2023/03/31 00:01:10;;;;;;;15.23;6.87;;;;;;;8.64;66.34;95151.78;5001753;28;20234;-71
2023/03/31 00:03:37;;;;;;;17.60;7.40;;;;;;;8.68;66.71;95157.44;5011818;28;20268;-71
2023/03/31 00:06:03;;;;;;;19.47;7.37;;;;;;;8.89;66.00;95147.06;5031230;28;20685;-71
2023/03/31 00:08:34;;;;;;;14.93;6.63;;;;;;;8.82;66.20;95151.38;5001192;28;20242;-72
2023/03/31 00:11:00;;;;;;;16.80;7.30;;;;;;;8.78;65.47;95147.53;5002072;28;20226;-71
2023/03/31 00:13:26;;;;;;;14.50;6.80;;;;;;;8.72;66.38;95145.63;5006856;28;20629;-71
2023/03/31 00:15:58;;;;;;;14.47;6.90;;;;;;;8.65;66.91;95136.94;5006543;28;20230;-71
2023/03/31 00:18:24;;;;;;;18.33;6.90;;;;;;;8.70;66.67;95139.81;5009086;28;20238;-71
2023/03/31 00:20:52;;;;;;;21.90;7.30;;;;;;;8.77;66.50;95135.47;5030560;28;20241;-71
2023/03/31 00:23:26;;;;;;;16.63;7.23;;;;;;;8.84;65.87;95136.34;5010591;28;20721;-72
2023/03/31 00:25:51;;;;;;;18.57;7.70;;;;;;;9.02;66.41;95138.56;5018825;28;20238;-71
2023/03/31 00:28:17;;;;;;;19.47;9.00;;;;;;;9.05;66.39;95133.78;5010194;28;20241;-71
2023/03/31 00:30:42;;;;;;;20.37;7.97;;;;;;;9.13;65.04;95130.25;4999713;28;20777;-72
2023/03/31 00:33:08;;;;;;;21.10;8.37;;;;;;;9.12;65.38;95137.25;5013763;28;20245;-71
2023/03/31 00:35:37;;;;;;;24.13;8.00;;;;;;;8.95;65.76;95135.91;5030067;28;20214;-71
2023/03/31 00:38:04;;;;;;;15.67;6.80;;;;;;;8.74;67.63;95135.84;5010155;28;20238;-71
2023/03/31 00:40:30;;;;;;;19.37;7.43;;;;;;;8.81;65.93;95129.69;5011641;28;20234;-71
2023/03/31 00:42:56;;;;;;;16.53;7.33;;;;;;;8.91;66.29;95121.56;5017734;28;20230;-72
2023/03/31 00:45:30;;;;;;;15.03;7.40;;;;;;;9.04;65.94;95120.91;5007525;28;20258;-71
2023/03/31 00:48:04;;;;;;;21.33;6.93;;;;;;;8.99;65.79;95124.09;5035887;28;20292;-71
2023/03/31 00:50:34;;;;;;;15.07;7.30;;;;;;;9.18;64.71;95120.88;5012840;28;20233;-72
2023/03/31 00:53:09;;;;;;;16.57;6.63;;;;;;;9.11;64.31;95106.94;5039366;28;20226;-72
2023/03/31 00:55:38;;;;;;;18.03;6.50;;;;;;;9.11;65.24;95111.34;5016423;28;20235;-72
2023/03/31 00:58:04;;;;;;;15.33;6.57;;;;;;;9.16;64.21;95109.00;5007968;28;20920;-71
2023/03/31 01:00:30;;;;;;;18.30;6.90;;;;;;;9.09;65.85;95108.94;5021851;28;20222;-72
2023/03/31 01:02:57;;;;;;;19.00;7.47;;;;;;;9.07;64.42;95095.25;5019415;28;20264;-72
2023/03/31 01:05:35;;;;;;;15.27;7.30;;;;;;;9.12;65.24;95097.31;5007799;28;20712;-71
2023/03/31 01:08:01;;;;;;;14.30;6.47;;;;;;;8.91;66.61;95086.84;5016551;28;20237;-72
2023/03/31 01:10:27;;;;;;;17.13;6.90;;;;;;;9.12;66.42;95092.88;5016902;28;20234;-72
2023/03/31 01:12:53;;;;;;;17.20;7.00;;;;;;;8.99;68.05;95094.56;5016283;28;20773;-71
2023/03/31 01:15:18;;;;;;;20.43;7.43;;;;;;;9.09;66.31;95089.84;5034593;28;20233;-71
2023/03/31 01:17:44;;;;;;;16.50;7.00;;;;;;;9.00;67.25;95094.38;5024993;28;20229;-71
2023/03/31 01:20:31;;;;;;;14.57;6.60;;;;;;;9.10;66.20;95092.25;5033545;28;20296;-71
2023/03/31 01:23:09;;;;;;;13.70;6.70;;;;;;;8.98;68.19;95101.56;5048944;28;20924;-71
2023/03/31 01:26:02;;;;;;;14.10;6.70;;;;;;;8.96;67.75;95100.94;5033455;28;20257;-71
2023/03/31 01:28:56;;;;;;;18.03;6.93;;;;;;;9.02;66.70;95100.22;5033368;28;20807;-70
2023/03/31 01:31:44;;;;;;;17.87;6.90;;;;;;;9.13;66.55;95101.53;5049041;28;20710;-71
2023/03/31 01:34:22;;;;;;;18.17;6.33;;;;;;;9.11;66.75;95109.56;5025601;28;20342;-71
2023/03/31 01:36:51;;;;;;;16.07;7.33;;;;;;;9.21;66.24;95115.28;5032863;28;20320;-71
2023/03/31 01:39:28;;;;;;;15.70;7.07;;;;;;;9.30;67.18;95116.78;5032849;28;20230;-71
2023/03/31 01:42:09;;;;;;;18.10;7.43;;;;;;;9.32;65.98;95112.16;5034547;28;20333;-71
2023/03/31 01:44:46;;;;;;;15.17;7.73;;;;;;;9.36;66.43;95123.06;5030433;28;20252;-71
2023/03/31 01:47:24;;;;;;;17.63;8.07;;;;;;;9.40;65.41;95121.69;5033432;28;20236;-71
2023/03/31 01:50:06;;;;;;;17.63;7.60;;;;;;;9.46;66.70;95124.34;5034307;28;20324;-71
2023/03/31 01:53:03;;;;;;;21.13;7.93;;;;;;;9.32;66.09;95135.66;5014543;28;20248;-71
2023/03/31 01:55:44;;;;;;;19.77;8.50;;;;;;;9.44;64.35;95131.56;5002669;28;20245;-72
2023/03/31 01:58:21;;;;;;;17.23;8.53;;;;;;;9.47;65.07;95133.00;5002602;28;20233;-71
2023/03/31 02:01:20;;;;;;;19.83;9.03;;;;;;;9.44;66.63;95128.97;5000510;28;20232;-71
2023/03/31 02:03:49;;;;;;;24.23;10.20;;;;;;;9.44;66.97;95130.75;5038998;28;20358;-70
2023/03/31 02:06:20;;;;;;;26.90;10.83;;;;;;;9.48;66.98;95132.03;5008541;28;20230;-71
2023/03/31 02:08:52;;;;;;;25.97;11.00;;;;;;;9.48;67.40;95135.41;5005571;28;20307;-71
2023/03/31 02:11:18;;;;;;;24.60;10.97;;;;;;;9.49;68.05;95134.44;5022508;28;20291;-71
2023/03/31 02:13:44;;;;;;;27.10;11.60;;;;;;;9.53;66.94;95134.84;5010254;28;21087;-70
2023/03/31 02:16:13;;;;;;;31.23;12.10;;;;;;;9.32;69.48;95138.28;5006473;28;20241;-71
2023/03/31 02:18:40;;;;;;;29.47;12.73;;;;;;;9.36;68.93;95149.19;5005249;28;20287;-71
2023/03/31 02:21:07;;;;;;;33.20;12.83;;;;;;;9.46;70.05;95160.94;5013782;28;20229;-70
2023/03/31 02:23:33;;;;;;;31.50;11.43;;;;;;;9.49;70.58;95151.91;5015072;28;20250;-71
2023/03/31 02:26:04;;;;;;;29.90;11.40;;;;;;;9.53;73.49;95154.97;5030261;28;20232;-70
2023/03/31 02:28:29;;;;;;;23.57;10.87;;;;;;;9.28;77.01;95168.38;5013322;28;20949;-71
2023/03/31 02:31:18;;;;;;;27.17;11.43;;;;;;;9.30;77.56;95168.19;5033947;28;20230;-70
2023/03/31 02:33:43;;;;;;;28.33;11.43;;;;;;;9.17;82.44;95173.28;5030427;28;20316;-70
2023/03/31 02:36:09;;;;;;;28.23;11.60;;;;;;;9.22;81.79;95170.91;5013351;28;20226;-71
2023/03/31 02:38:37;;;;;;;27.30;11.73;;;;;;;9.06;85.75;95184.19;5013212;28;20776;-71
2023/03/31 02:41:03;;;;;;;29.33;11.20;;;;;;;9.15;84.49;95178.69;5011993;28;20730;-70
2023/03/31 02:43:28;;;;;;;26.13;11.63;;;;;;;8.97;85.87;95183.50;5018404;28;20222;-70
2023/03/31 02:45:54;;;;;;;26.30;11.53;;;;;;;8.79;91.24;95183.88;5009893;28;20223;-70
2023/03/31 02:48:23;;;;;;;28.37;11.90;;;;;;;8.51;91.63;95180.31;5009028;28;20242;-70
2023/03/31 02:51:06;;;;;;;24.43;11.63;;;;;;;8.73;89.71;95181.19;5013391;28;20236;-70
2023/03/31 02:53:34;;;;;;;24.80;11.87;;;;;;;8.62;93.99;95164.19;5017654;28;20277;-70
2023/03/31 02:56:41;;;;;;;25.33;11.27;;;;;;;8.60;94.14;95154.91;5031430;28;20238;-70
2023/03/31 02:59:09;;;;;;;28.50;11.27;;;;;;;8.74;93.67;95156.72;5021262;28;20234;-70
2023/03/31 03:01:49;;;;;;;28.90;11.20;;;;;;;8.85;90.58;95156.25;5029739;28;20233;-70
2023/03/31 03:04:53;;;;;;;27.87;11.13;;;;;;;8.91;92.33;95144.28;5013890;28;20229;-70
2023/03/31 03:07:36;;;;;;;22.97;11.03;;;;;;;8.84;93.09;95133.75;5031990;28;20240;-70
2023/03/31 03:10:29;;;;;;;28.13;11.30;;;;;;;8.70;96.19;95139.81;5031997;28;20248;-70
2023/03/31 03:13:30;;;;;;;25.90;11.20;;;;;;;8.76;97.01;95129.44;5028387;28;20606;-69
2023/03/31 03:16:00;;;;;;;25.73;10.93;;;;;;;8.64;96.54;95124.88;5016450;28;20733;-69
2023/03/31 03:18:25;;;;;;;24.93;11.33;;;;;;;8.70;95.66;95119.75;5017144;28;20233;-69
2023/03/31 03:20:51;;;;;;;25.27;10.53;;;;;;;8.67;92.82;95114.06;5011581;28;20241;-69
2023/03/31 03:23:17;;;;;;;25.83;10.87;;;;;;;8.74;92.38;95104.53;5013853;28;20241;-69
2023/03/31 03:25:42;;;;;;;24.20;10.40;;;;;;;8.87;92.26;95103.88;5005569;28;20230;-69
2023/03/31 03:28:08;;;;;;;30.07;11.17;;;;;;;8.92;92.64;95111.94;5030519;28;20355;-70
2023/03/31 03:30:34;;;;;;;24.30;10.87;;;;;;;8.78;95.73;95111.81;5004018;28;20222;-70
2023/03/31 03:32:59;;;;;;;25.83;10.30;;;;;;;8.87;95.43;95107.28;5011732;28;20311;-70
2023/03/31 03:35:25;;;;;;;24.40;10.30;;;;;;;8.88;96.10;95105.50;5013025;28;20649;-70
2023/03/31 03:37:50;;;;;;;22.70;9.43;;;;;;;8.95;94.46;95104.56;5042921;28;20245;-70
2023/03/31 03:40:16;;;;;;;22.30;10.20;;;;;;;8.94;94.29;95095.13;5014259;28;20447;-71
2023/03/31 03:42:41;;;;;;;21.23;9.33;;;;;;;8.87;96.44;95094.25;5009105;28;20672;-70
2023/03/31 03:45:07;;;;;;;19.90;7.93;;;;;;;8.85;95.43;95096.22;5019730;28;20230;-70
2023/03/31 03:47:33;;;;;;;19.53;8.60;;;;;;;8.83;96.34;95087.78;5027167;28;20287;-70
2023/03/31 03:49:58;;;;;;;18.20;7.40;;;;;;;8.75;92.46;95090.50;5014507;28;20238;-70
2023/03/31 03:52:24;;;;;;;18.00;7.27;;;;;;;8.86;93.67;95082.16;5020328;28;20237;-69
2023/03/31 03:54:49;;;;;;;21.63;8.07;;;;;;;8.94;93.45;95084.69;5019719;28;20241;-69
2023/03/31 03:57:15;;;;;;;17.07;7.23;;;;;;;9.01;92.54;95082.94;5006567;28;20241;-70
2023/03/31 03:59:40;;;;;;;20.37;7.90;;;;;;;9.16;92.86;95083.69;5015603;28;20784;-70
2023/03/31 04:02:06;;;;;;;18.07;7.40;;;;;;;9.26;91.91;95086.81;5025594;28;20265;-70
2023/03/31 04:04:31;;;;;;;16.57;7.30;;;;;;;9.43;89.44;95090.75;5033450;28;20594;-70
2023/03/31 04:06:57;;;;;;;17.60;6.90;;;;;;;9.54;90.41;95101.69;5018562;28;20230;-70
2023/03/31 04:09:22;;;;;;;14.47;6.00;;;;;;;9.56;87.65;95100.50;5019544;28;20261;-70
2023/03/31 04:11:48;;;;;;;13.83;6.23;;;;;;;9.60;87.76;95100.97;5025391;28;20346;-69
2023/03/31 04:14:13;;;;;;;14.93;6.30;;;;;;;9.71;86.93;95103.06;5013150;28;20221;-70
2023/03/31 04:16:39;;;;;;;15.17;5.80;;;;;;;9.42;89.79;95112.66;5022389;28;20233;-70
2023/03/31 04:19:04;;;;;;;11.93;5.47;;;;;;;9.39;87.31;95109.59;5009372;28;20232;-70
2023/03/31 04:21:33;;;;;;;12.50;5.47;;;;;;;9.39;89.59;95109.59;5015355;28;20264;-70
2023/03/31 04:24:00;;;;;;;8.97;5.00;;;;;;;9.43;86.99;95109.03;5016156;28;20230;-70
2023/03/31 04:26:30;;;;;;;10.90;4.80;;;;;;;9.51;86.14;95108.09;5016415;28;20237;-70
2023/03/31 04:29:01;;;;;;;10.00;4.87;;;;;;;9.65;86.99;95101.22;5006399;28;20234;-70
2023/03/31 04:31:29;;;;;;;10.47;4.80;;;;;;;9.59;86.11;95105.38;4994437;28;20253;-70
2023/03/31 04:33:55;;;;;;;9.77;4.93;;;;;;;9.60;86.58;95100.97;5005705;28;20245;-70
2023/03/31 04:36:21;;;;;;;14.43;5.10;;;;;;;9.64;84.85;95099.56;5002814;28;20237;-70
2023/03/31 04:38:49;;;;;;;11.10;4.70;;;;;;;9.48;88.06;95098.06;5006241;28;20230;-70
2023/03/31 04:41:17;;;;;;;13.30;5.50;;;;;;;9.45;87.78;95093.19;5018281;28;20329;-70
2023/03/31 04:43:43;;;;;;;10.83;4.80;;;;;;;9.54;86.81;95091.25;5018245;28;20240;-71
2023/03/31 04:46:09;;;;;;;10.60;4.97;;;;;;;9.50;87.70;95083.00;5016218;28;20238;-71
2023/03/31 04:48:36;;;;;;;14.00;5.00;;;;;;;9.59;86.55;95081.84;5006497;28;20242;-71
2023/03/31 04:51:02;;;;;;;10.30;5.07;;;;;;;9.70;87.45;95083.94;5013626;28;20257;-71
2023/03/31 04:53:27;;;;;;;12.27;5.40;;;;;;;9.64;87.32;95089.13;5011840;28;20685;-70
2023/03/31 04:55:53;;;;;;;12.13;5.57;;;;;;;9.70;88.12;95089.16;5032258;28;21484;-70
2023/03/31 04:58:18;;;;;;;13.37;6.30;;;;;;;9.77;89.11;95082.19;5029874;28;20622;-71
2023/03/31 05:00:44;;;;;;;12.80;5.60;;;;;;;9.72;89.91;95075.94;5025823;28;20237;-70
2023/03/31 05:03:09;;;;;;;16.43;6.43;;;;;;;9.71;89.13;95076.91;5016949;28;20323;-70
2023/03/31 05:05:35;;;;;;;17.93;6.83;;;;;;;9.66;88.57;95081.91;5023368;28;20606;-70
2023/03/31 05:08:01;;;;;;;16.77;6.67;;;;;;;9.66;89.37;95087.13;5017870;28;20230;-71
2023/03/31 05:10:26;;;;;;;14.27;7.07;;;;;;;9.75;88.19;95076.34;5014968;28;20226;-70
2023/03/31 05:12:52;;;;;;;15.33;7.00;;;;;;;9.77;88.31;95076.94;5033185;28;20245;-70
2023/03/31 05:15:17;;;;;;;16.40;7.27;;;;;;;9.82;88.83;95076.38;5003345;28;20229;-71
2023/03/31 05:17:43;;;;;;;16.83;8.13;;;;;;;9.50;88.87;95065.50;5015094;28;20227;-70
2023/03/31 05:20:10;;;;;;;17.27;9.10;;;;;;;9.40;89.21;95064.22;5016688;28;20234;-71
2023/03/31 05:22:37;;;;;;;20.53;9.27;;;;;;;9.55;89.13;95062.34;4997230;28;20861;-71
2023/03/31 05:25:03;;;;;;;24.03;10.13;;;;;;;9.65;88.42;95067.25;5023562;28;20240;-71
2023/03/31 05:27:28;;;;;;;19.63;9.67;;;;;;;9.58;87.75;95066.38;5001287;28;20238;-70
2023/03/31 05:29:54;;;;;;;18.40;8.53;;;;;;;9.82;88.13;95065.94;4996409;28;21069;-70
2023/03/31 05:32:19;;;;;;;20.13;9.00;;;;;;;9.81;89.15;95061.72;5032033;28;20277;-71
2023/03/31 05:34:45;;;;;;;22.30;9.10;;;;;;;9.96;87.67;95065.81;5014014;28;20244;-71
2023/03/31 05:37:10;;;;;;;18.23;8.57;;;;;;;9.81;87.01;95053.88;5019618;28;20233;-69
2023/03/31 05:39:36;;;;;;;18.30;8.70;;;;;;;10.00;86.77;95058.41;5018767;28;20276;-71
2023/03/31 05:42:02;;;;;;;15.00;7.53;;;;;;;9.97;85.11;95056.19;5007957;28;20230;-70
2023/03/31 05:44:27;;;;;;;17.47;7.80;;;;;;;9.91;83.97;95052.50;5011519;28;20699;-70
2023/03/31 05:46:53;;;;;;;19.77;8.20;;;;;;;9.89;84.94;95049.28;5029688;28;20236;-70
2023/03/31 05:49:19;;;;;;;15.87;7.67;;;;;;;10.20;84.42;95046.28;5022071;28;20237;-71
2023/03/31 05:51:44;;;;;;;18.10;7.90;;;;;;;10.47;83.21;95055.06;5028370;28;20725;-71
2023/03/31 05:54:10;;;;;;;20.10;8.30;;;;;;;10.63;85.55;95062.56;5019394;28;20238;-71
2023/03/31 05:56:35;;;;;;;16.27;7.93;;;;;;;10.88;80.80;95060.22;5019574;28;20268;-71
2023/03/31 05:59:01;;;;;;;19.53;7.57;;;;;;;10.83;79.08;95061.63;5013884;28;20229;-71
2023/03/31 06:01:26;;;;;;;17.07;7.53;;;;;;;10.63;80.52;95059.94;5019752;28;20255;-70
2023/03/31 06:03:52;;;;;;;16.03;7.03;;;;;;;10.67;79.54;95062.00;5012933;28;20242;-70
2023/03/31 06:06:18;;;;;;;19.03;7.30;;;;;;;10.59;80.61;95069.19;5022948;28;20234;-70
2023/03/31 06:08:44;;;;;;;17.33;7.30;;;;;;;10.81;81.98;95068.88;5015506;28;20237;-70
2023/03/31 06:11:11;;;;;;;17.63;7.07;;;;;;;10.60;80.60;95068.97;5015994;28;20234;-71
2023/03/31 06:13:37;;;;;;;17.03;7.30;;;;;;;10.43;79.87;95072.16;5014726;28;20254;-71
2023/03/31 06:16:03;;;;;;;18.03;7.47;;;;;;;10.83;81.59;95073.91;5007044;28;20791;-69
2023/03/31 06:18:29;;;;;;;18.17;8.20;;;;;;;11.01;80.66;95061.06;5004378;28;20245;-70
2023/03/31 06:20:55;;;;;;;23.17;10.23;;;;;;;11.03;80.98;95059.06;5015299;28;20225;-69
2023/03/31 06:23:21;;;;;;;19.57;10.33;;;;;;;11.24;80.86;95058.91;5013419;28;20242;-71
2023/03/31 06:25:46;;;;;;;21.23;11.40;;;;;;;11.23;79.06;95059.06;5013320;28;20234;-70
2023/03/31 06:28:12;;;;;;;22.83;10.80;;;;;;;11.39;78.53;95061.31;5011844;28;20245;-70
2023/03/31 06:30:37;;;;;;;20.77;9.70;;;;;;;11.43;78.07;95059.91;5010897;28;20352;-71
2023/03/31 06:33:03;;;;;;;21.20;8.67;;;;;;;11.61;77.32;95060.09;5031274;28;20287;-70
2023/03/31 06:35:28;;;;;;;15.70;7.70;;;;;;;11.71;76.98;95068.41;5031233;28;20279;-71
2023/03/31 06:37:54;;;;;;;15.17;7.23;;;;;;;11.61;76.37;95059.31;5006020;28;20237;-71
2023/03/31 06:40:19;;;;;;;18.03;6.97;;;;;;;11.60;75.76;95063.75;5015075;28;20238;-71
2023/03/31 06:42:44;;;;;;;19.83;7.43;;;;;;;11.85;74.52;95056.91;5011325;28;20268;-71
2023/03/31 06:45:10;;;;;;;20.27;7.50;;;;;;;12.22;75.85;95070.34;5007256;28;20691;-71
2023/03/31 06:47:37;;;;;;;17.67;7.13;;;;;;;12.46;71.74;95067.88;5031968;28;20266;-70
2023/03/31 06:50:04;;;;;;;14.37;7.33;;;;;;;12.33;72.36;95067.09;4994926;28;20600;-70
2023/03/31 06:52:30;;;;;;;19.00;7.57;;;;;;;12.38;74.35;95069.91;5022281;28;20240;-70
2023/03/31 06:54:55;;;;;;;21.63;6.80;;;;;;;12.71;69.93;95062.69;5026888;28;20715;-72
2023/03/31 06:57:21;;;;;;;14.83;6.67;;;;;;;12.83;70.04;95067.09;5010665;28;20273;-70
2023/03/31 06:59:46;;;;;;;18.60;6.47;;;;;;;12.83;71.40;95061.84;5013331;28;20237;-70
2023/03/31 07:02:12;;;;;;;19.13;6.67;;;;;;;12.99;68.93;95057.91;5014025;28;20234;-70
2023/03/31 07:04:37;;;;;;;18.87;7.43;;;;;;;13.04;70.42;95059.94;5019281;28;20294;-71
2023/03/31 07:07:03;;;;;;;18.67;6.87;;;;;;;13.24;69.00;95043.03;5035166;28;20237;-70
2023/03/31 07:09:28;;;;;;;19.10;7.50;;;;;;;13.00;69.33;95022.75;5017193;28;20228;-70
2023/03/31 07:11:54;;;;;;;18.53;7.47;;;;;;;13.00;68.99;95012.25;5029263;28;20244;-70
2023/03/31 07:14:21;;;;;;;20.60;7.37;;;;;;;13.65;68.29;95015.41;5003882;28;20319;-70
2023/03/31 07:16:47;;;;;;;17.00;7.57;;;;;;;13.89;68.25;95007.50;5030450;28;20234;-71
2023/03/31 07:19:14;;;;;;;20.73;7.67;;;;;;;13.98;66.47;95003.56;5006602;28;20801;-71
2023/03/31 07:21:40;;;;;;;19.20;7.07;;;;;;;14.25;65.84;94995.38;5010747;28;20230;-71
2023/03/31 07:24:05;;;;;;;16.03;6.10;;;;;;;14.18;64.50;94995.47;5022340;28;20233;-70
2023/03/31 07:26:31;;;;;;;10.47;4.23;;;;;;;14.63;58.23;94996.78;5035998;28;20308;-70
2023/03/31 07:28:56;;;;;;;8.43;3.83;;;;;;;14.80;55.90;94996.97;5004384;28;20261;-70
2023/03/31 07:31:22;;;;;;;13.93;4.30;;;;;;;15.15;55.00;95008.41;5037239;28;20741;-72
2023/03/31 07:33:47;;;;;;;12.23;4.33;;;;;;;14.94;54.46;95006.28;5018074;28;20719;-71
2023/03/31 07:36:13;;;;;;;13.53;4.60;;;;;;;14.94;54.21;95001.03;5024540;28;20612;-72
2023/03/31 07:38:40;;;;;;;14.67;5.13;;;;;;;14.78;55.16;95006.94;5006321;28;20614;-72
2023/03/31 07:41:08;;;;;;;9.80;4.67;;;;;;;14.60;55.44;94999.84;5012278;28;20229;-72
2023/03/31 07:43:34;;;;;;;9.73;4.50;;;;;;;14.92;53.93;94989.09;5035030;28;20229;-72
2023/03/31 07:45:59;;;;;;;10.53;4.73;;;;;;;15.06;54.84;94993.16;5038537;28;20233;-71
2023/03/31 07:48:27;;;;;;;10.10;4.73;;;;;;;15.23;53.55;95002.03;5032678;28;20740;-71
2023/03/31 07:50:53;;;;;;;9.63;4.37;;;;;;;15.35;53.24;94990.47;5003740;28;20279;-72
2023/03/31 07:53:18;;;;;;;12.33;4.67;;;;;;;15.39;52.61;94999.53;5035678;28;20513;-72
2023/03/31 07:55:44;;;;;;;15.40;5.70;;;;;;;15.54;52.48;94995.69;5002610;28;20238;-72
2023/03/31 07:58:10;;;;;;;10.43;4.97;;;;;;;15.64;51.92;94998.56;5019119;28;20273;-71
2023/03/31 08:00:36;;;;;;;16.67;5.27;;;;;;;16.19;51.09;95005.09;5018488;28;20758;-72
2023/03/31 08:03:01;;;;;;;11.13;4.33;;;;;;;16.24;50.54;94993.84;5032178;28;20234;-72
2023/03/31 08:05:27;;;;;;;9.63;4.30;;;;;;;16.19;49.39;94997.97;5015077;28;20238;-72
2023/03/31 08:07:52;;;;;;;8.30;3.87;;;;;;;16.01;49.72;94984.91;5016304;28;20738;-72
2023/03/31 08:10:20;;;;;;;13.40;4.07;;;;;;;15.95;50.04;95004.28;5031699;28;20256;-71
2023/03/31 08:12:46;;;;;;;8.53;3.30;;;;;;;15.46;50.46;94981.00;5030831;28;20234;-71
2023/03/31 08:15:11;;;;;;;7.30;3.50;;;;;;;15.33;50.83;94974.06;5001099;28;20222;-71
2023/03/31 08:17:37;;;;;;;10.13;3.60;;;;;;;15.31;51.53;94972.66;5028226;28;20632;-72
2023/03/31 08:20:05;;;;;;;9.77;3.33;;;;;;;15.10;52.16;94983.75;5018445;28;20236;-73
2023/03/31 08:22:31;;;;;;;10.90;3.30;;;;;;;15.04;51.13;94968.84;5016306;28;20352;-73
2023/03/31 08:24:56;;;;;;;11.57;3.40;;;;;;;15.07;51.33;94973.69;4999955;28;20620;-72
2023/03/31 08:27:22;;;;;;;9.57;3.90;;;;;;;15.11;51.85;94977.47;5013004;28;20237;-73
2023/03/31 08:29:48;;;;;;;10.27;3.40;;;;;;;15.09;50.74;94976.88;4987633;28;20226;-72
2023/03/31 08:32:14;;;;;;;9.97;3.30;;;;;;;15.04;51.64;94980.22;4984984;28;20237;-72
2023/03/31 08:34:41;;;;;;;9.47;3.33;;;;;;;15.04;51.74;94968.84;4989794;28;20230;-72
2023/03/31 08:37:08;;;;;;;10.67;3.17;;;;;;;14.82;51.38;94961.47;4997550;28;20286;-73
2023/03/31 08:39:36;;;;;;;8.30;3.00;;;;;;;14.71;52.16;94962.19;4984770;28;20223;-72
2023/03/31 08:42:28;;;;;;;8.60;3.10;;;;;;;14.80;51.71;94974.06;5016827;28;20234;-72
2023/03/31 08:45:08;;;;;;;8.63;3.20;;;;;;;14.77;51.70;94968.41;4998143;28;21209;-72
2023/03/31 08:47:35;;;;;;;7.60;3.00;;;;;;;14.85;52.38;94960.22;5013575;28;20246;-72
2023/03/31 08:50:29;;;;;;;9.90;3.20;;;;;;;14.89;51.95;94965.81;4981398;28;20246;-72
2023/03/31 08:53:12;;;;;;;10.73;3.30;;;;;;;14.78;52.49;94964.78;5039435;28;20234;-73
2023/03/31 08:56:04;;;;;;;12.87;3.40;;;;;;;14.51;52.05;94950.34;5017814;28;20226;-73
2023/03/31 08:58:49;;;;;;;9.20;3.10;;;;;;;14.36;52.84;94945.44;5039488;28;20279;-73
2023/03/31 09:01:23;;;;;;;7.77;2.90;;;;;;;14.40;53.49;94938.72;5031384;28;20229;-72
2023/03/31 09:04:07;;;;;;;16.73;3.23;;;;;;;14.56;53.04;94932.84;5034038;28;22027;-72
2023/03/31 09:06:38;;;;;;;10.90;2.90;;;;;;;14.67;52.56;94937.34;5006821;28;20226;-72
2023/03/31 09:09:07;;;;;;;5.40;2.60;;;;;;;14.66;52.16;94921.78;5016752;28;20241;-72
2023/03/31 09:11:44;;;;;;;10.57;3.00;;;;;;;14.69;52.40;94926.56;5013696;28;20233;-72
2023/03/31 09:14:13;;;;;;;8.60;2.93;;;;;;;15.04;50.84;94924.03;5032855;28;20229;-72
2023/03/31 09:17:33;;;;;;;7.47;2.93;;;;;;;16.01;48.66;94933.94;5029436;28;20316;-72
2023/03/31 09:20:08;;;;;;;7.73;2.53;;;;;;;16.21;47.33;94925.63;5005278;28;20244;-72
2023/03/31 09:22:43;;;;;;;8.80;2.80;;;;;;;16.63;47.29;94925.16;5037128;28;20237;-72
2023/03/31 09:25:30;;;;;;;7.17;2.57;;;;;;;16.30;47.16;94926.88;5017032;28;20221;-72
2023/03/31 09:27:57;;;;;;;7.97;3.00;;;;;;;16.28;47.09;94931.59;5000391;28;20283;-72
2023/03/31 09:30:27;;;;;;;9.53;2.70;;;;;;;16.36;47.16;94931.22;5005262;28;20233;-72
2023/03/31 09:33:08;;;;;;;11.27;2.53;;;;;;;16.79;46.39;94919.09;5008381;28;20238;-73
2023/03/31 09:35:34;;;;;;;7.80;2.67;;;;;;;16.84;45.31;94921.03;5020415;28;20303;-73
2023/03/31 09:38:00;;;;;;;8.03;2.83;;;;;;;16.66;46.46;94918.59;5033702;28;20226;-73
2023/03/31 09:40:26;;;;;;;9.60;2.73;;;;;;;16.48;46.41;94929.34;5018067;28;20225;-73
2023/03/31 09:43:06;;;;;;;9.40;2.70;;;;;;;16.64;46.15;94918.03;5013324;28;20237;-72
2023/03/31 09:45:32;;;;;;;8.60;3.00;;;;;;;16.92;45.71;94917.22;5008116;28;20233;-73
2023/03/31 09:48:01;;;;;;;9.13;2.80;;;;;;;17.03;45.38;94916.38;4991633;28;20234;-73
2023/03/31 09:50:27;;;;;;;7.67;2.80;;;;;;;16.91;44.95;94915.63;5034863;28;20234;-72
2023/03/31 09:52:56;;;;;;;7.87;2.60;;;;;;;16.80;44.60;94904.88;5031481;28;20249;-72
2023/03/31 09:55:51;;;;;;;7.50;2.73;;;;;;;17.07;44.78;94902.41;5017230;28;20290;-69
2023/03/31 09:58:16;;;;;;;8.87;2.50;;;;;;;17.32;43.96;94912.59;5005122;28;20234;-72
2023/03/31 10:00:59;;;;;;;6.53;2.30;;;;;;;17.31;43.36;94903.88;5032754;28;20233;-70
2023/03/31 10:03:26;;;;;;;9.07;2.80;;;;;;;17.36;44.31;94901.28;5020497;28;20282;-72
2023/03/31 10:05:53;;;;;;;8.17;2.70;;;;;;;17.35;44.06;94899.69;5023210;28;20236;-70
2023/03/31 10:08:23;;;;;;;6.77;2.50;;;;;;;17.52;43.80;94898.91;5004929;28;20233;-70
2023/03/31 10:10:56;;;;;;;7.93;2.70;;;;;;;17.01;44.15;94887.50;5029739;28;20261;-72
2023/03/31 10:13:28;;;;;;;7.93;2.57;;;;;;;16.79;44.72;94884.75;5031707;28;20268;-71
2023/03/31 10:15:54;;;;;;;7.20;2.50;;;;;;;16.78;44.84;94882.34;5000862;28;20600;-73
2023/03/31 10:18:20;;;;;;;7.27;2.60;;;;;;;16.87;44.80;94886.19;5003986;28;20703;-74
2023/03/31 10:20:49;;;;;;;6.23;2.40;;;;;;;17.09;43.94;94870.44;5015696;28;20230;-73
2023/03/31 10:23:22;;;;;;;7.80;2.50;;;;;;;17.50;43.62;94886.66;5014730;28;21189;-73
2023/03/31 10:25:47;;;;;;;5.30;2.43;;;;;;;17.57;43.08;94875.16;5030109;28;20237;-73
2023/03/31 10:28:17;;;;;;;6.83;2.33;;;;;;;17.27;42.62;94881.56;5038054;28;20244;-73
2023/03/31 10:30:47;;;;;;;6.60;2.50;;;;;;;17.52;43.60;94865.28;5007408;28;20699;-73
2023/03/31 10:33:13;;;;;;;6.97;2.53;;;;;;;17.48;43.42;94867.59;5017462;28;20781;-73
2023/03/31 10:35:39;;;;;;;7.47;2.53;;;;;;;17.73;42.32;94863.72;5011878;28;20723;-73
2023/03/31 10:38:22;;;;;;;4.77;2.50;;;;;;;17.60;42.48;94858.78;5029826;28;20240;-73
2023/03/31 10:40:55;;;;;;;7.53;2.60;;;;;;;17.55;42.89;94858.72;5031703;28;20698;-73
2023/03/31 10:43:27;;;;;;;7.20;2.60;;;;;;;17.22;43.49;94847.09;5023520;28;20230;-73
2023/03/31 10:45:58;;;;;;;6.43;2.40;;;;;;;17.14;44.38;94849.34;4996633;28;20257;-73
2023/03/31 10:48:32;;;;;;;6.83;2.60;;;;;;;16.88;45.43;94848.16;4984643;28;20290;-73
2023/03/31 10:51:13;;;;;;;7.37;2.90;;;;;;;16.96;46.56;94853.03;5002387;28;20233;-72
2023/03/31 10:53:40;;;;;;;6.37;2.40;;;;;;;17.29;46.19;94846.94;5023908;28;20280;-72
2023/03/31 10:56:28;;;;;;;7.53;2.67;;;;;;;17.40;45.77;94844.19;5018193;28;20238;-72
2023/03/31 10:59:30;;;;;;;6.67;2.70;;;;;;;17.38;45.46;94841.00;5030959;28;20244;-73
2023/03/31 11:02:32;;;;;;;5.07;2.50;;;;;;;17.23;45.07;94840.78;5032889;28;20777;-72
2023/03/31 11:05:11;;;;;;;6.17;2.50;;;;;;;17.37;45.05;94836.75;5022286;28;20251;-72
2023/03/31 11:07:37;;;;;;;14.03;2.70;;;;;;;17.34;44.55;94836.41;5034697;28;20260;-73
2023/03/31 11:10:21;;;;;;;6.20;2.50;;;;;;;17.27;45.38;94831.28;5032692;28;20249;-72
2023/03/31 11:13:06;;;;;;;7.47;2.40;;;;;;;17.15;45.64;94829.78;5030677;28;20246;-73
2023/03/31 11:16:03;;;;;;;5.03;2.43;;;;;;;17.05;45.41;94829.66;5027884;28;20232;-73
2023/03/31 11:18:37;;;;;;;8.13;2.57;;;;;;;17.21;44.94;94811.13;5030991;28;20237;-72
2023/03/31 11:21:20;;;;;;;8.00;2.80;;;;;;;17.38;44.96;94822.47;5031427;28;20235;-73
2023/03/31 11:24:04;;;;;;;9.47;2.60;;;;;;;17.33;44.90;94808.38;5012091;28;20233;-75
2023/03/31 11:26:35;;;;;;;10.97;3.03;;;;;;;17.43;44.96;94809.28;5034126;28;20257;-73
2023/03/31 11:29:07;;;;;;;8.50;2.90;;;;;;;17.40;44.72;94804.50;5027721;28;20324;-73
2023/03/31 11:31:48;;;;;;;6.30;2.47;;;;;;;17.25;44.32;94800.84;5030580;28;20271;-74
2023/03/31 11:34:28;;;;;;;12.73;2.77;;;;;;;17.35;44.30;94796.50;5031291;28;20234;-73
2023/03/31 11:36:59;;;;;;;7.73;2.60;;;;;;;17.18;44.48;94797.56;5031302;28;20242;-73
2023/03/31 11:39:50;;;;;;;9.43;3.17;;;;;;;17.01;44.80;94786.19;5028474;28;20237;-74
2023/03/31 11:42:20;;;;;;;8.90;2.73;;;;;;;17.05;45.02;94777.53;5031265;28;20245;-73
2023/03/31 11:44:51;;;;;;;6.90;2.73;;;;;;;17.09;46.07;94778.69;4997735;28;20275;-73